createdAt,value
2018-12-05T00:00:21.717Z,13.73
2018-12-05T00:02:50.772Z,14.20
2018-12-05T00:05:19.855Z,14.77
2018-12-05T00:07:48.973Z,16.63
2018-12-05T00:10:18.060Z,19.27
2018-12-05T00:12:47.213Z,17.83
2018-12-05T00:15:16.325Z,22.23
2018-12-05T00:17:45.396Z,15.03
2018-12-05T00:20:14.518Z,14.70
2018-12-05T00:22:43.714Z,16.50
2018-12-05T00:25:13.853Z,14.33
2018-12-05T00:27:43.598Z,13.00
2018-12-05T00:30:12.753Z,12.27
2018-12-05T00:32:41.832Z,18.50
2018-12-05T00:35:11.072Z,12.50
2018-12-05T00:37:40.174Z,12.47
2018-12-05T00:40:09.283Z,17.30
2018-12-05T00:42:38.354Z,15.20
2018-12-05T00:45:07.626Z,15.20
2018-12-05T00:47:37.153Z,15.67
2018-12-05T00:50:06.392Z,13.10
2018-12-05T00:52:35.515Z,12.77
2018-12-05T00:55:05.738Z,17.50
2018-12-05T00:57:34.818Z,17.00
2018-12-05T01:00:04.936Z,16.23
2018-12-05T01:02:34.646Z,17.77
2018-12-05T01:05:04.092Z,15.03
2018-12-05T01:07:33.238Z,15.53
2018-12-05T01:10:02.337Z,17.20
2018-12-05T01:12:31.420Z,15.60
2018-12-05T01:15:00.550Z,16.17
2018-12-05T01:17:29.650Z,17.20
2018-12-05T01:19:58.768Z,17.63
2018-12-05T01:22:27.907Z,16.70
2018-12-05T01:24:56.980Z,20.00
2018-12-05T01:27:26.066Z,16.70
2018-12-05T01:29:55.186Z,19.33
2018-12-05T01:32:24.252Z,18.70
2018-12-05T01:34:53.325Z,18.73
2018-12-05T01:37:22.668Z,16.90
2018-12-05T01:39:51.722Z,16.47
2018-12-05T01:42:20.848Z,18.30
2018-12-05T01:44:55.382Z,18.00
2018-12-05T01:47:24.743Z,20.73
2018-12-05T01:49:53.847Z,18.70
2018-12-05T01:52:23.055Z,17.97
2018-12-05T01:54:52.173Z,19.80
2018-12-05T01:57:21.235Z,19.10
2018-12-05T01:59:50.897Z,23.50
2018-12-05T02:02:20.007Z,19.40
2018-12-05T02:04:49.083Z,22.33
2018-12-05T02:07:18.769Z,19.80
2018-12-05T02:09:48.481Z,19.33
2018-12-05T02:12:17.602Z,16.97
2018-12-05T02:14:46.731Z,18.03
2018-12-05T02:17:15.834Z,17.87
2018-12-05T02:19:45.015Z,21.63
2018-12-05T02:22:14.085Z,20.93
2018-12-05T02:24:43.170Z,21.50
2018-12-05T02:27:12.335Z,20.90
2018-12-05T02:29:47.533Z,22.07
2018-12-05T02:32:16.654Z,19.73
2018-12-05T02:34:45.731Z,19.13
2018-12-05T02:37:14.864Z,20.80
2018-12-05T02:39:45.240Z,19.83
2018-12-05T02:42:14.296Z,23.53
2018-12-05T02:44:43.562Z,23.33
2018-12-05T02:47:13.376Z,21.33
2018-12-05T02:49:42.940Z,22.20
2018-12-05T02:52:12.031Z,24.40
2018-12-05T02:54:41.159Z,22.87
2018-12-05T02:57:10.231Z,20.67
2018-12-05T02:59:39.303Z,23.40
2018-12-05T03:02:08.422Z,25.83
2018-12-05T03:04:37.511Z,27.90
2018-12-05T03:07:06.574Z,32.13
2018-12-05T03:09:35.680Z,22.97
2018-12-05T03:12:05.003Z,30.00
2018-12-05T03:14:34.149Z,28.03
2018-12-05T03:17:03.390Z,21.80
2018-12-05T03:19:32.473Z,27.03
2018-12-05T03:22:01.648Z,23.60
2018-12-05T03:24:30.782Z,24.10
2018-12-05T03:26:59.961Z,23.43
2018-12-05T03:29:29.748Z,25.70
2018-12-05T03:31:58.839Z,26.17
2018-12-05T03:34:27.910Z,25.50
2018-12-05T03:36:56.988Z,26.03
2018-12-05T03:39:26.084Z,21.97
2018-12-05T03:41:55.568Z,22.87
2018-12-05T03:44:24.648Z,25.90
2018-12-05T03:46:53.918Z,25.27
2018-12-05T03:49:23.004Z,26.47
2018-12-05T03:51:52.103Z,28.20
2018-12-05T03:54:21.363Z,24.63
2018-12-05T03:56:50.448Z,26.43
2018-12-05T03:59:19.537Z,26.63
2018-12-05T04:01:48.675Z,27.30
2018-12-05T04:04:18.117Z,25.57
2018-12-05T04:06:47.193Z,25.60
2018-12-05T04:09:16.306Z,26.70
2018-12-05T04:11:45.360Z,26.60
2018-12-05T04:14:14.462Z,27.20
2018-12-05T04:16:43.629Z,27.73
2018-12-05T04:19:12.710Z,25.20
2018-12-05T04:21:41.809Z,28.63
2018-12-05T04:24:10.897Z,25.23
2018-12-05T04:26:39.998Z,28.37
2018-12-05T04:29:09.795Z,25.73
2018-12-05T04:31:38.905Z,26.60
2018-12-05T04:34:08.016Z,28.80
2018-12-05T04:36:37.089Z,28.37
2018-12-05T04:39:09.558Z,32.13
2018-12-05T04:41:38.648Z,30.00
2018-12-05T04:44:08.014Z,27.70
2018-12-05T04:46:37.311Z,29.10
2018-12-05T04:49:06.429Z,35.80
2018-12-05T04:51:35.511Z,30.00
2018-12-05T04:54:04.971Z,31.00
2018-12-05T04:56:34.063Z,29.20
2018-12-05T04:59:03.180Z,29.20
2018-12-05T05:01:32.289Z,30.27
2018-12-05T05:04:01.352Z,33.43
2018-12-05T05:06:30.446Z,32.70
2018-12-05T05:09:00.316Z,32.77
2018-12-05T05:11:29.405Z,34.20
2018-12-05T05:13:58.475Z,31.30
2018-12-05T05:16:27.609Z,31.13
2018-12-05T05:18:56.707Z,34.50
2018-12-05T05:21:25.839Z,32.83
2018-12-05T05:23:54.967Z,33.03
2018-12-05T05:26:24.093Z,32.30
2018-12-05T05:28:53.182Z,32.77
2018-12-05T05:31:23.778Z,37.50
2018-12-05T05:33:53.025Z,31.20
2018-12-05T05:36:22.201Z,29.20
2018-12-05T05:38:51.887Z,30.47
2018-12-05T05:41:20.937Z,30.00
2018-12-05T05:43:50.079Z,31.23
2018-12-05T05:46:19.617Z,29.83
2018-12-05T05:48:48.721Z,34.30
2018-12-05T05:51:18.321Z,33.93
2018-12-05T05:53:47.410Z,31.77
2018-12-05T05:56:16.485Z,30.37
2018-12-05T05:58:45.587Z,24.53
2018-12-05T06:01:14.703Z,29.23
2018-12-05T06:03:43.757Z,29.43
2018-12-05T06:06:12.917Z,30.50
2018-12-05T06:08:42.057Z,35.00
2018-12-05T06:11:11.135Z,35.87
2018-12-05T06:13:40.800Z,31.20
2018-12-05T06:16:09.901Z,34.23
2018-12-05T06:18:39.104Z,32.50
2018-12-05T06:21:08.283Z,35.70
2018-12-05T06:23:37.370Z,33.43
2018-12-05T06:26:06.446Z,37.83
2018-12-05T06:28:35.606Z,40.87
2018-12-05T06:31:04.715Z,36.10
2018-12-05T06:33:33.794Z,35.10
2018-12-05T06:36:03.040Z,37.53
2018-12-05T06:38:32.173Z,37.97
2018-12-05T06:41:01.253Z,34.33
2018-12-05T06:43:30.363Z,35.03
2018-12-05T06:45:59.427Z,37.70
2018-12-05T06:48:28.922Z,33.90
2018-12-05T06:50:58.236Z,38.00
2018-12-05T06:53:27.299Z,32.03
2018-12-05T06:55:56.395Z,38.10
2018-12-05T06:58:25.569Z,38.97
2018-12-05T07:00:54.677Z,35.93
2018-12-05T07:03:23.765Z,34.10
2018-12-05T07:05:52.922Z,39.43
2018-12-05T07:08:22.092Z,42.53
2018-12-05T07:10:51.168Z,40.80
2018-12-05T07:13:20.443Z,38.10
2018-12-05T07:15:49.575Z,38.97
2018-12-05T07:18:18.985Z,39.83
2018-12-05T07:20:48.103Z,37.47
2018-12-05T07:23:17.271Z,39.23
2018-12-05T07:25:46.355Z,41.73
2018-12-05T07:28:15.453Z,35.47
2018-12-05T07:30:44.531Z,41.47
2018-12-05T07:33:13.731Z,58.47
2018-12-05T07:35:42.941Z,41.23
2018-12-05T07:38:19.222Z,37.90
2018-12-05T07:40:43.128Z,38.73
2018-12-05T07:43:12.171Z,41.47
2018-12-05T07:45:41.274Z,43.10
2018-12-05T07:48:10.413Z,41.17
2018-12-05T07:50:40.645Z,43.33
2018-12-05T07:53:09.809Z,39.47
2018-12-05T07:55:38.903Z,43.53
2018-12-05T07:58:08.175Z,48.03
2018-12-05T08:00:37.300Z,37.33
2018-12-05T08:03:06.394Z,39.40
2018-12-05T08:05:35.487Z,47.73
2018-12-05T08:08:04.643Z,45.77
2018-12-05T08:10:33.684Z,34.93
2018-12-05T08:13:02.778Z,40.73
2018-12-05T08:15:31.947Z,35.50
2018-12-05T08:18:01.031Z,34.90
2018-12-05T08:20:30.130Z,36.23
2018-12-05T08:22:59.247Z,42.03
2018-12-05T08:25:28.336Z,38.97
2018-12-05T08:27:57.426Z,37.00
2018-12-05T08:30:26.529Z,38.20
2018-12-05T08:32:55.614Z,35.20
2018-12-05T08:35:24.695Z,42.00
2018-12-05T08:37:54.102Z,41.53
2018-12-05T08:40:23.204Z,40.87
2018-12-05T08:42:52.307Z,40.10
2018-12-05T08:45:21.476Z,39.23
2018-12-05T08:47:50.540Z,36.67
2018-12-05T08:50:19.612Z,39.27
2018-12-05T08:52:48.901Z,40.87
2018-12-05T08:55:17.982Z,44.07
2018-12-05T08:57:47.192Z,42.10
2018-12-05T09:00:16.428Z,48.13
2018-12-05T09:02:45.619Z,45.70
2018-12-05T09:05:14.722Z,42.03
2018-12-05T09:07:44.392Z,43.53
2018-12-05T09:10:13.612Z,42.30
2018-12-05T09:12:42.684Z,43.10
2018-12-05T09:15:11.803Z,39.83
2018-12-05T09:17:40.871Z,39.40
2018-12-05T09:20:10.081Z,36.90
2018-12-05T09:22:41.499Z,40.77
2018-12-05T09:25:10.412Z,40.57
2018-12-05T09:27:39.614Z,40.40
2018-12-05T09:30:08.938Z,40.50
2018-12-05T09:32:38.038Z,41.53
2018-12-05T09:35:07.168Z,39.13
2018-12-05T09:37:36.248Z,42.63
2018-12-05T09:40:05.680Z,42.40
2018-12-05T09:42:34.800Z,36.23
2018-12-05T09:45:04.278Z,43.63
2018-12-05T09:47:33.366Z,34.90
2018-12-05T09:50:02.476Z,42.80
2018-12-05T09:52:31.586Z,40.37
2018-12-05T09:55:01.022Z,46.37
2018-12-05T09:57:30.135Z,40.60
2018-12-05T09:59:59.326Z,40.87
2018-12-05T10:02:28.398Z,49.63
2018-12-05T10:04:57.536Z,42.20
2018-12-05T10:07:26.612Z,38.93
2018-12-05T10:09:56.380Z,40.60
2018-12-05T10:12:25.506Z,35.43
2018-12-05T10:14:54.593Z,32.80
2018-12-05T10:17:24.206Z,37.10
2018-12-05T10:19:53.344Z,38.27
2018-12-05T10:22:22.408Z,36.67
2018-12-05T10:24:52.222Z,32.43
2018-12-05T10:27:21.344Z,37.13
2018-12-05T10:29:50.573Z,38.57
2018-12-05T10:32:19.672Z,37.57
2018-12-05T10:34:48.855Z,39.30
2018-12-05T10:37:17.991Z,39.73
2018-12-05T10:39:47.063Z,37.53
2018-12-05T10:42:16.187Z,35.70
2018-12-05T10:44:45.312Z,42.40
2018-12-05T10:47:14.416Z,38.60
2018-12-05T10:52:31.213Z,39.40
2018-12-05T10:55:00.304Z,33.83
2018-12-05T10:57:29.802Z,34.30
2018-12-05T10:59:59.097Z,38.03
2018-12-05T11:02:33.311Z,40.10
2018-12-05T11:05:07.703Z,35.33
2018-12-05T11:07:42.147Z,38.90
2018-12-05T11:10:16.615Z,38.40
2018-12-05T11:12:50.963Z,32.43
2018-12-05T11:15:25.461Z,33.47
2018-12-05T11:17:59.777Z,34.27
2018-12-05T11:20:34.285Z,35.30
2018-12-05T11:23:08.580Z,40.77
2018-12-05T11:25:37.683Z,34.33
2018-12-05T11:28:06.765Z,34.40
2018-12-05T11:30:36.269Z,33.63
2018-12-05T11:33:05.397Z,34.50
2018-12-05T11:35:36.171Z,34.93
2018-12-05T11:38:05.647Z,32.80
2018-12-05T11:40:34.751Z,35.20
2018-12-05T11:43:03.966Z,31.80
2018-12-05T11:45:33.089Z,33.70
2018-12-05T11:48:02.420Z,32.23
2018-12-05T11:50:31.493Z,30.77
2018-12-05T11:53:00.583Z,31.67
2018-12-05T11:55:29.672Z,31.60
2018-12-05T11:57:59.080Z,30.73
2018-12-05T12:00:28.306Z,35.57
2018-12-05T12:02:57.575Z,29.90
2018-12-05T12:05:26.659Z,31.50
2018-12-05T12:07:55.917Z,38.90
2018-12-05T12:10:30.143Z,31.20
2018-12-05T12:13:07.034Z,31.33
2018-12-05T12:15:36.630Z,30.40
2018-12-05T12:18:06.141Z,29.80
2018-12-05T12:20:35.213Z,33.40
2018-12-05T12:23:04.480Z,29.57
2018-12-05T12:25:33.562Z,36.50
2018-12-05T12:28:02.691Z,32.07
2018-12-05T12:30:31.810Z,33.53
2018-12-05T12:33:02.708Z,29.47
2018-12-05T12:35:32.859Z,32.23
2018-12-05T12:38:01.955Z,33.37
2018-12-05T12:40:31.065Z,29.70
2018-12-05T12:43:00.215Z,25.27
2018-12-05T12:45:29.287Z,29.43
2018-12-05T12:47:58.395Z,30.80
2018-12-05T12:50:27.499Z,32.87
2018-12-05T12:52:56.565Z,30.83
2018-12-05T12:55:25.683Z,28.87
2018-12-05T12:57:54.817Z,29.93
2018-12-05T13:00:24.187Z,28.80
2018-12-05T13:02:53.363Z,26.40
2018-12-05T13:05:22.505Z,32.87
2018-12-05T13:07:51.586Z,27.30
2018-12-05T13:10:20.660Z,37.13
2018-12-05T13:12:51.804Z,32.40
2018-12-05T13:15:20.873Z,29.03
2018-12-05T13:17:49.952Z,32.57
2018-12-05T13:20:19.076Z,26.73
2018-12-05T13:22:48.294Z,37.83
2018-12-05T13:25:17.424Z,33.00
2018-12-05T13:27:46.543Z,31.80
2018-12-05T13:30:15.667Z,33.63
2018-12-05T13:32:44.766Z,28.53
2018-12-05T13:35:14.026Z,28.00
2018-12-05T13:37:43.118Z,30.80
2018-12-05T13:40:12.327Z,33.20
2018-12-05T13:42:41.448Z,32.10
2018-12-05T13:45:10.762Z,29.80
2018-12-05T13:47:39.927Z,30.07
2018-12-05T13:50:09.078Z,30.47
2018-12-05T13:52:38.201Z,38.63
2018-12-05T13:55:07.308Z,30.77
2018-12-05T13:57:36.432Z,33.37
2018-12-05T14:00:07.540Z,34.50
2018-12-05T14:02:36.794Z,30.90
2018-12-05T14:05:06.152Z,33.33
2018-12-05T14:07:35.463Z,30.03
2018-12-05T14:10:05.050Z,32.33
2018-12-05T14:12:39.110Z,34.03
2018-12-05T14:15:09.568Z,35.40
2018-12-05T14:17:38.664Z,32.73
2018-12-05T14:20:09.306Z,33.33
2018-12-05T14:22:38.401Z,40.20
2018-12-05T14:25:08.110Z,35.63
2018-12-05T14:27:37.306Z,33.00
2018-12-05T14:30:07.812Z,34.10
2018-12-05T14:32:36.896Z,37.40
2018-12-05T14:35:06.218Z,35.03
2018-12-05T14:37:35.315Z,35.03
2018-12-05T14:40:05.330Z,38.60
2018-12-05T14:42:34.496Z,38.53
2018-12-05T14:45:03.712Z,33.43
2018-12-05T14:47:32.904Z,38.90
2018-12-05T14:50:02.176Z,49.70
2018-12-05T14:52:31.391Z,37.47
2018-12-05T14:55:00.590Z,37.07
2018-12-05T14:57:30.712Z,38.03
2018-12-05T15:00:00.092Z,40.80
2018-12-05T15:02:29.320Z,38.10
2018-12-05T15:04:59.005Z,36.77
2018-12-05T15:07:28.142Z,40.87
2018-12-05T15:09:57.276Z,32.93
2018-12-05T15:12:26.372Z,41.07
2018-12-05T15:14:55.545Z,44.13
2018-12-05T15:17:25.781Z,36.30
2018-12-05T15:19:54.993Z,33.90
2018-12-05T15:22:24.213Z,35.87
2018-12-05T15:24:53.447Z,37.20
2018-12-05T15:27:22.693Z,34.73
2018-12-05T15:29:51.916Z,36.97
2018-12-05T15:32:21.134Z,38.90
2018-12-05T15:34:50.246Z,38.80
2018-12-05T15:37:19.393Z,36.50
2018-12-05T15:39:48.675Z,41.07
2018-12-05T15:42:17.764Z,34.53
2018-12-05T15:44:46.989Z,38.17
2018-12-05T15:47:16.205Z,49.37
2018-12-05T15:49:45.355Z,45.43
2018-12-05T15:52:14.603Z,43.67
2018-12-05T15:54:43.779Z,44.20
2018-12-05T15:57:13.024Z,42.67
2018-12-05T15:59:42.211Z,39.97
2018-12-05T16:02:11.485Z,33.97
2018-12-05T16:04:40.616Z,39.47
2018-12-05T16:07:11.025Z,38.53
2018-12-05T16:09:40.163Z,32.00
2018-12-05T16:12:09.335Z,35.87
2018-12-05T16:14:39.050Z,39.03
2018-12-05T16:17:08.205Z,40.63
2018-12-05T16:19:37.300Z,40.33
2018-12-05T16:22:07.281Z,39.27
2018-12-05T16:24:36.467Z,44.47
2018-12-05T16:27:05.633Z,40.10
2018-12-05T16:29:34.771Z,40.97
2018-12-05T16:32:04.197Z,43.10
2018-12-05T16:34:33.351Z,38.80
2018-12-05T16:37:02.545Z,34.20
2018-12-05T16:39:31.767Z,41.30
2018-12-05T16:42:01.022Z,37.20
2018-12-05T16:44:30.173Z,41.30
2018-12-05T16:46:59.424Z,43.20
2018-12-05T16:49:28.651Z,42.00
2018-12-05T16:51:57.891Z,42.90
2018-12-05T16:54:28.059Z,46.30
2018-12-05T16:56:57.372Z,42.27
2018-12-05T16:59:26.525Z,41.03
2018-12-05T17:01:55.721Z,41.20
2018-12-05T17:04:25.945Z,39.93
2018-12-05T17:06:55.161Z,36.60
2018-12-05T17:09:26.316Z,40.37
2018-12-05T17:11:55.763Z,39.70
2018-12-05T17:14:24.973Z,33.93
2018-12-05T17:16:54.148Z,34.77
2018-12-05T17:19:23.299Z,35.30
2018-12-05T17:21:52.435Z,37.63
2018-12-05T17:24:21.555Z,40.27
2018-12-05T17:26:50.675Z,37.73
2018-12-05T17:29:19.749Z,39.07
2018-12-05T17:31:48.855Z,36.10
2018-12-05T17:34:17.979Z,40.83
2018-12-05T17:36:47.077Z,39.03
2018-12-05T17:39:16.171Z,45.83
2018-12-05T17:41:45.291Z,42.00
2018-12-05T17:44:15.067Z,46.40
2018-12-05T17:46:44.177Z,46.73
2018-12-05T17:49:13.259Z,41.00
2018-12-05T17:51:42.410Z,35.63
2018-12-05T17:54:14.666Z,38.17
2018-12-05T17:56:43.352Z,40.10
2018-12-05T17:59:12.449Z,39.50
2018-12-05T18:01:42.226Z,44.40
2018-12-05T18:04:11.342Z,38.87
2018-12-05T18:06:40.465Z,37.73
2018-12-05T18:09:09.802Z,38.47
2018-12-05T18:11:39.476Z,38.77
2018-12-05T18:14:08.558Z,44.43
2018-12-05T18:16:37.673Z,42.10
2018-12-05T18:19:06.930Z,38.47
2018-12-05T18:21:36.031Z,34.53
2018-12-05T18:24:05.153Z,37.47
2018-12-05T18:26:34.293Z,38.50
2018-12-05T18:29:03.514Z,41.27
2018-12-05T18:31:32.624Z,41.47
2018-12-05T18:34:01.923Z,44.70
2018-12-05T18:36:31.015Z,40.63
2018-12-05T18:39:00.121Z,51.97
2018-12-05T18:41:29.264Z,48.80
2018-12-05T18:43:58.464Z,52.73
2018-12-05T18:46:27.543Z,53.53
2018-12-05T18:48:56.659Z,53.13
2018-12-05T18:51:25.779Z,47.10
2018-12-05T18:53:54.937Z,42.07
2018-12-05T18:56:24.074Z,42.17
2018-12-05T18:58:53.184Z,50.60
2018-12-05T19:01:22.287Z,47.73
2018-12-05T19:03:51.387Z,49.53
2018-12-05T19:06:20.599Z,49.60
2018-12-05T19:08:49.699Z,48.13
2018-12-05T19:11:18.793Z,55.97
2018-12-05T19:13:53.259Z,59.60
2018-12-05T19:16:22.561Z,56.40
2018-12-05T19:18:51.642Z,49.47
2018-12-05T19:21:20.705Z,58.50
2018-12-05T19:23:49.837Z,59.77
2018-12-05T19:26:18.947Z,55.43
2018-12-05T19:28:48.061Z,50.97
2018-12-05T19:31:19.509Z,44.43
2018-12-05T19:33:48.372Z,45.13
2018-12-05T19:36:17.449Z,46.67
2018-12-05T19:38:46.507Z,37.70
2018-12-05T19:41:15.665Z,50.40
2018-12-05T19:43:44.797Z,42.93
2018-12-05T19:46:13.909Z,44.33
2018-12-05T19:48:43.210Z,50.10
2018-12-05T19:51:12.459Z,45.77
2018-12-05T19:53:41.556Z,50.20
2018-12-05T19:56:10.658Z,50.70
2018-12-05T19:58:39.813Z,45.83
2018-12-05T20:01:08.932Z,80.37
2018-12-05T20:03:38.108Z,59.87
2018-12-05T20:06:07.357Z,48.33
2018-12-05T20:08:36.449Z,49.80
2018-12-05T20:11:05.548Z,39.90
2018-12-05T20:13:36.621Z,56.00
2018-12-05T20:16:05.802Z,50.63
2018-12-05T20:18:34.909Z,48.30
2018-12-05T20:21:04.081Z,37.93
2018-12-05T20:23:33.207Z,45.97
2018-12-05T20:26:02.301Z,42.10
2018-12-05T20:28:31.385Z,47.20
2018-12-05T20:31:00.465Z,45.43
2018-12-05T20:33:29.530Z,44.40
2018-12-05T20:35:58.625Z,44.83
2018-12-05T20:38:27.727Z,44.17
2018-12-05T20:40:56.814Z,44.87
2018-12-05T20:43:25.915Z,41.30
2018-12-05T20:45:54.999Z,45.47
2018-12-05T20:48:24.115Z,50.77
2018-12-05T20:50:53.391Z,44.50
2018-12-05T20:53:22.497Z,45.83
2018-12-05T20:55:51.605Z,43.00
2018-12-05T20:58:20.698Z,43.93
2018-12-05T21:00:49.785Z,57.33
2018-12-05T21:03:18.908Z,42.43
2018-12-05T21:05:48.067Z,48.27
2018-12-05T21:08:17.217Z,43.90
2018-12-05T21:10:46.357Z,41.70
2018-12-05T21:13:15.497Z,47.07
2018-12-05T21:15:44.595Z,44.40
2018-12-05T21:18:13.859Z,41.23
2018-12-05T21:20:43.007Z,39.07
2018-12-05T21:23:12.101Z,39.83
2018-12-05T21:25:41.182Z,41.90
2018-12-05T21:28:10.321Z,40.27
2018-12-05T21:30:39.459Z,38.10
2018-12-05T21:33:08.659Z,43.00
2018-12-05T21:35:38.371Z,36.43
2018-12-05T21:38:07.452Z,41.80
2018-12-05T21:40:36.609Z,35.93
2018-12-05T21:43:05.695Z,38.10
2018-12-05T21:45:34.803Z,37.53
2018-12-05T21:48:03.928Z,40.80
2018-12-05T21:50:33.008Z,37.80
2018-12-05T21:53:02.089Z,34.33
2018-12-05T21:55:31.169Z,38.37
2018-12-05T21:58:00.304Z,38.03
2018-12-05T22:00:29.387Z,35.27
2018-12-05T22:02:58.479Z,36.67
2018-12-05T22:05:27.602Z,36.30
2018-12-05T22:07:56.719Z,55.53
2018-12-05T22:10:25.807Z,35.17
2018-12-05T22:12:54.891Z,35.77
2018-12-05T22:15:23.995Z,31.30
2018-12-05T22:17:53.073Z,33.60
2018-12-05T22:20:22.521Z,32.50
2018-12-05T22:22:51.605Z,37.07
2018-12-05T22:25:20.726Z,32.53
2018-12-05T22:27:49.821Z,28.90
2018-12-05T22:30:18.979Z,31.10
2018-12-05T22:32:48.068Z,31.73
2018-12-05T22:35:17.157Z,29.10
2018-12-05T22:37:46.266Z,31.77
2018-12-05T22:40:15.367Z,32.03
2018-12-05T22:42:44.559Z,34.60
2018-12-05T22:45:13.669Z,33.30
2018-12-05T22:47:42.763Z,30.30
2018-12-05T22:50:11.885Z,29.40
2018-12-05T22:52:41.021Z,29.47
2018-12-05T22:55:10.245Z,26.63
2018-12-05T22:57:39.327Z,32.83
2018-12-05T23:00:15.983Z,31.77
2018-12-05T23:02:45.239Z,25.90
2018-12-05T23:05:14.320Z,29.83
2018-12-05T23:07:43.547Z,27.67
2018-12-05T23:10:12.914Z,33.10
2018-12-05T23:12:42.051Z,28.93
2018-12-05T23:15:11.191Z,26.07
2018-12-05T23:17:40.287Z,26.13
2018-12-05T23:20:09.543Z,30.10
2018-12-05T23:22:38.824Z,33.97
2018-12-05T23:25:07.925Z,27.80
2018-12-05T23:27:36.977Z,28.17
2018-12-05T23:30:06.677Z,33.27
2018-12-05T23:32:35.812Z,25.53
2018-12-05T23:35:05.337Z,29.37
2018-12-05T23:37:34.530Z,36.00
2018-12-05T23:40:03.756Z,24.90
2018-12-05T23:42:32.957Z,31.40
2018-12-05T23:45:02.035Z,31.27
2018-12-05T23:47:31.407Z,31.97
2018-12-05T23:50:00.482Z,34.40
2018-12-05T23:52:29.590Z,25.27
2018-12-05T23:54:58.711Z,27.33
2018-12-05T23:57:27.913Z,28.40
2018-12-05T23:59:56.992Z,31.10
